Terminal Aerodrome Forecast
Issued by NWS

Home | Current Version | Previous Version | Text Only | Print | Product List | Glossary On
Versions: 1 2 3 4 5 6 7 8 9 10 11 12 13 14 15 16 17 18
000
FTUS44 KCRP 210500
TAFLRD
TAF
KLRD 210530Z 2106/2206 05007KT P6SM OVC015
     FM211000 VRB04KT 6SM BR OVC015
     FM211600 17006KT P6SM BKN025
     FM212200 17008KT P6SM SCT025=

USA.gov is the U.S. government's official web portal to all federal, state and local government web resources and services.